NCAR-RAP Real-Time Weather Data

Output produced by METARs form (24 April 2018  16:22 UTC)
found at http://weather.rap.ucar.edu/surface/
 
RJBT 240900Z 19014KT 150V230 9999 -RA FEW000 SCT020 BKN050 18/15 Q1003
RJBT 240800Z 18014KT 9999 -RA FEW000 SCT020 BKN070 17/15 Q1003
RJBT 240700Z 17012KT 140V220 9999 -RA FEW000 SCT020 BKN080 17/15 Q1004
RJBT 240600Z 17012KT 9999 -RA FEW000 SCT020 BKN100 17/15 Q1005
RJBT 240500Z 17015G27KT 140V210 9999 -RA FEW000 SCT025 BKN080 16/14 Q1006
RJBT 240400Z 18015G30KT 140V210 9999 -RA FEW000 SCT025 BKN080 17/15 Q1007
RJBT 240300Z 19012KT 9999 -RA FEW000 SCT025 BKN080 17/16 Q1008
RJBT 240200Z 19012KT 9999 -RA FEW000 SCT060 BKN080 17/15 Q1009
RJBT 240100Z 18010KT 150V220 9999 RA FEW000 SCT050 BKN070 16/15 Q1010
RJBT 240000Z 19010KT 9999 -RA FEW000 SCT025 BKN070 16/15 Q1010
RJBT 232330Z 18008KT 9999 -RA FEW000 SCT025 BKN070 16/15 Q1011
RJBT 230900Z VRB02KT 6000 FEW030 SCT100 BKN120 15/13 Q1016
RJBT 230800Z 01004KT 330V040 6000 -RA FEW030 SCT100 BKN120 15/13 Q1015
RJBT 230700Z 01007KT 340V040 7000 FEW030 SCT120 BKN150 15/13 Q1015
RJBT 230600Z 36010KT 9999 FEW030 SCT130 BKN150 16/13 Q1015
RJBT 230500Z 01007KT 340V050 9999 FEW030 BKN/// 20/13 Q1016
RJBT 230400Z 36006KT 330V040 9999 FEW030 BKN/// 19/13 Q1016
RJBT 230300Z 01009KT 9999 FEW030 BKN/// 18/13 Q1017
RJBT 230200Z 01007KT 330V040 9999 FEW025 BKN/// 18/13 Q1017
RJBT 230100Z 36005KT 320V040 9999 FEW005 BKN/// 17/13 Q1018
RJBT 230020Z VRB02KT 8000 BCFG FEW005 SCT008 BKN/// 14/13 Q1019 RMK 1ST005 4ST008 A3009 FG ALL QUAD
RJBT 230000Z VRB02KT 5000 BCFG FEW000 BKN005 14/14 Q1019
RJBT 222330Z VRB02KT 2500 BCFG FEW000 BKN003 14/13 Q1019
RJBT 220900Z 02006KT 340V050 9999 FEW040 BKN/// 19/13 Q1018
RJBT 220800Z 01007KT 340V050 9999 FEW040 SCT/// 22/11 Q1018
RJBT 220700Z 01008KT 340V040 9999 FEW040 SCT/// 23/11 Q1018
RJBT 220600Z 02007KT 320V070 9999 FEW040 BKN/// 24/11 Q1018
RJBT 220500Z VRB06KT 9999 FEW040 BKN/// 24/11 Q1018